Time;durP1;ratioP1;P1;durP2;ratioP2;P2;SDS_P1;SDS_P2;PMS_P1;PMS_P2;Temp;Humidity;BMP_temperature;BMP_pressure;BME280_temperature;BME280_humidity;BME280_pressure;Samples;Min_cycle;Max_cycle;Signal;HPM_P1;HPM_P2
2021/03/20 00:00:00;;;;;;;3.37;1.20;;;;;;;-4.31;100.00;99241.52;3720952;78;44516;-17
2021/03/20 00:05:09;;;;;;;2.77;1.30;;;;;;;-4.39;100.00;99237.34;3712560;78;44197;-16
2021/03/20 00:10:18;;;;;;;2.33;1.20;;;;;;;-4.47;100.00;99239.83;3738419;78;43463;-17
2021/03/20 00:15:26;;;;;;;2.63;1.40;;;;;;;-4.62;100.00;99239.37;3749998;78;44412;-17
2021/03/20 00:20:34;;;;;;;3.60;1.67;;;;;;;-4.71;100.00;99243.12;3740597;78;44048;-17
2021/03/20 00:25:40;;;;;;;3.27;1.63;;;;;;;-4.71;100.00;99245.75;3753722;78;44027;-16
2021/03/20 00:30:46;;;;;;;2.67;1.37;;;;;;;-4.77;100.00;99247.70;3748099;78;44430;-17
2021/03/20 00:35:52;;;;;;;1.97;1.30;;;;;;;-4.71;100.00;99258.05;3741553;78;44039;-16
2021/03/20 00:40:59;;;;;;;2.87;1.73;;;;;;;-4.74;100.00;99266.02;3699149;79;44043;-18
2021/03/20 00:46:08;;;;;;;1.90;1.20;;;;;;;-4.77;100.00;99270.04;3636781;80;43367;-17
2021/03/20 00:51:14;;;;;;;2.20;1.30;;;;;;;-4.83;100.00;99265.39;3752898;78;44108;-17
2021/03/20 00:56:22;;;;;;;4.40;1.97;;;;;;;-4.87;100.00;99277.31;3743036;78;43592;-17
2021/03/20 01:01:27;;;;;;;5.37;1.80;;;;;;;-4.93;100.00;99270.93;3744433;78;44076;-17
2021/03/20 01:06:34;;;;;;;2.53;1.20;;;;;;;-4.92;100.00;99275.28;3744265;78;44084;-17
2021/03/20 01:11:41;;;;;;;1.90;1.40;;;;;;;-4.98;100.00;99281.58;3746911;78;43078;-16
2021/03/20 01:16:48;;;;;;;4.97;1.50;;;;;;;-5.00;100.00;99285.54;3744566;78;44084;-17
2021/03/20 01:21:54;;;;;;;3.37;1.40;;;;;;;-5.01;100.00;99284.28;3747918;78;43999;-17
2021/03/20 01:27:00;;;;;;;2.70;1.40;;;;;;;-5.02;100.00;99279.48;3745651;78;44073;-16
2021/03/20 01:32:07;;;;;;;3.50;1.37;;;;;;;-5.06;100.00;99279.62;3747087;78;43463;-16
2021/03/20 01:37:13;;;;;;;2.43;1.37;;;;;;;-5.10;100.00;99274.88;3743284;78;43754;-18
2021/03/20 01:42:21;;;;;;;4.37;1.37;;;;;;;-4.88;100.00;99280.88;3743112;78;44209;-17
2021/03/20 01:47:27;;;;;;;2.57;1.33;;;;;;;-4.83;100.00;99280.28;3739739;78;42995;-18
2021/03/20 01:52:34;;;;;;;4.33;1.87;;;;;;;-4.88;100.00;99280.41;3710661;78;43704;-17
2021/03/20 01:57:43;;;;;;;5.13;1.73;;;;;;;-4.80;100.00;99274.94;3709704;78;43700;-18
2021/03/20 02:02:49;;;;;;;2.33;1.63;;;;;;;-4.92;100.00;99275.28;3707169;78;43763;-18
2021/03/20 02:07:56;;;;;;;4.70;2.00;;;;;;;-4.91;100.00;99266.50;3703605;78;43671;-17
2021/03/20 02:13:07;;;;;;;4.73;1.80;;;;;;;-4.90;100.00;99273.48;3728326;78;43286;-18
2021/03/20 02:18:18;;;;;;;4.17;1.87;;;;;;;-5.01;100.00;99281.66;3714891;77;43416;-18
2021/03/20 02:23:59;;;;;;;4.87;2.07;;;;;;;-5.18;100.00;99275.55;3620010;80;43719;-18
2021/03/20 02:29:29;;;;;;;4.70;1.80;;;;;;;-5.26;100.00;99283.63;3702421;78;43731;-18
2021/03/20 02:34:38;;;;;;;2.87;1.90;;;;;;;-5.26;100.00;99293.70;3620660;80;44015;-18
2021/03/20 02:39:47;;;;;;;2.87;1.80;;;;;;;-5.19;100.00;99292.20;3706899;77;43416;-18
2021/03/20 02:44:56;;;;;;;8.10;1.97;;;;;;;-5.21;100.00;99279.56;3719505;78;44114;-18
2021/03/20 02:50:05;;;;;;;2.87;1.93;;;;;;;-5.23;100.00;99284.02;3723140;77;43318;-17
2021/03/20 02:55:14;;;;;;;5.40;1.80;;;;;;;-5.13;100.00;99287.66;3728922;78;43125;-18
2021/03/20 03:00:24;;;;;;;3.47;1.60;;;;;;;-5.09;100.00;99288.42;3731047;79;44226;-18
2021/03/20 03:05:33;;;;;;;3.67;1.73;;;;;;;-5.08;100.00;99280.11;3664130;80;44333;-18
2021/03/20 03:10:43;;;;;;;3.20;1.70;;;;;;;-5.11;100.00;99271.40;3733738;78;43002;-17
2021/03/20 03:15:51;;;;;;;5.63;2.07;;;;;;;-4.98;100.00;99285.05;3731716;78;43333;-18
2021/03/20 03:21:01;;;;;;;6.80;1.77;;;;;;;-4.90;100.00;99287.47;3623267;80;43026;-18
2021/03/20 03:26:10;;;;;;;4.43;2.00;;;;;;;-4.85;100.00;99279.02;3720837;79;43357;-17
2021/03/20 03:31:19;;;;;;;3.27;1.70;;;;;;;-4.86;100.00;99269.41;3621964;80;42894;-18
2021/03/20 03:36:26;;;;;;;3.87;1.90;;;;;;;-4.83;100.00;99273.70;3735882;77;43424;-18
2021/03/20 03:41:36;;;;;;;3.53;1.83;;;;;;;-4.92;100.00;99277.45;3726079;79;43668;-17
2021/03/20 03:46:46;;;;;;;5.37;1.90;;;;;;;-4.95;100.00;99261.32;3639885;80;43447;-17
2021/03/20 03:51:52;;;;;;;3.97;1.83;;;;;;;-4.95;100.00;99274.46;3730181;77;43289;-18
2021/03/20 03:57:34;;;;;;;4.57;2.03;;;;;;;-4.92;100.00;99267.41;3596389;80;43280;-18
2021/03/20 04:02:53;;;;;;;7.80;1.70;;;;;;;-4.99;100.00;99260.98;3652436;80;43194;-18
2021/03/20 04:08:06;;;;;;;3.30;1.73;;;;;;;-4.92;100.00;99272.66;3599831;79;142298;-18
2021/03/20 04:13:17;;;;;;;3.50;2.03;;;;;;;-4.88;100.00;99289.61;3597961;81;43540;-18
2021/03/20 04:18:28;;;;;;;4.43;1.97;;;;;;;-4.86;100.00;99291.75;3686880;77;43351;-18
2021/03/20 04:23:37;;;;;;;6.90;2.70;;;;;;;-4.86;100.00;99294.81;3795374;77;44248;-18
2021/03/20 04:28:47;;;;;;;2.10;1.80;;;;;;;-4.78;100.00;99298.55;3797687;77;43740;-18
2021/03/20 04:33:57;;;;;;;3.80;2.23;;;;;;;-4.84;100.00;99291.70;3773632;77;43966;-18
2021/03/20 04:39:06;;;;;;;5.90;2.20;;;;;;;-4.84;100.00;99295.64;3702009;77;41935;-17
2021/03/20 04:44:13;;;;;;;5.13;2.17;;;;;;;-4.89;100.00;99306.28;3769249;77;43985;-18
2021/03/20 04:49:41;;;;;;;3.07;1.90;;;;;;;-4.90;100.00;99311.12;3781035;77;44123;-18
2021/03/20 04:54:47;;;;;;;4.67;2.10;;;;;;;-4.99;100.00;99314.02;3787187;77;44063;-19
2021/03/20 04:59:59;;;;;;;6.77;2.10;;;;;;;-4.98;100.00;99325.79;3784006;77;43412;-18
2021/03/20 05:05:09;;;;;;;4.90;2.47;;;;;;;-4.97;100.00;99326.67;3708085;78;45130;-18
2021/03/20 05:10:22;;;;;;;4.37;1.90;;;;;;;-5.04;100.00;99334.28;3788720;77;44071;-18
2021/03/20 05:15:31;;;;;;;4.07;2.00;;;;;;;-5.05;100.00;99337.81;3794745;77;43686;-17
2021/03/20 05:20:37;;;;;;;7.20;2.40;;;;;;;-5.03;100.00;99338.20;3724878;77;44005;-18
2021/03/20 05:25:43;;;;;;;3.63;2.30;;;;;;;-4.93;100.00;99344.52;3710457;78;43686;-17
2021/03/20 05:30:50;;;;;;;5.47;2.80;;;;;;;-4.96;100.00;99354.21;3663137;80;43337;-18
2021/03/20 05:35:55;;;;;;;4.43;2.43;;;;;;;-4.91;100.00;99350.61;3715019;77;43364;-17
2021/03/20 05:41:03;;;;;;;8.90;3.07;;;;;;;-4.96;100.00;99351.58;3805976;77;43374;-16
2021/03/20 05:46:21;;;;;;;4.40;2.80;;;;;;;-4.92;100.00;99342.31;3789806;77;44044;-17
2021/03/20 05:51:34;;;;;;;5.90;2.73;;;;;;;-4.93;100.00;99344.52;3708136;80;44465;-18
2021/03/20 05:56:44;;;;;;;5.30;2.27;;;;;;;-4.98;100.00;99347.28;3708102;79;43967;-17
2021/03/20 06:02:07;;;;;;;4.17;2.70;;;;;;;-4.93;100.00;99355.03;3710680;78;44106;-17
2021/03/20 06:07:44;;;;;;;6.03;2.70;;;;;;;-4.96;100.00;99352.89;3801527;77;43727;-17
2021/03/20 06:12:57;;;;;;;6.43;3.20;;;;;;;-4.93;100.00;99360.30;3799469;77;44067;-18
2021/03/20 06:18:14;;;;;;;5.90;2.40;;;;;;;-4.95;100.00;99365.13;3804601;76;43009;-17
2021/03/20 06:23:46;;;;;;;4.33;2.17;;;;;;;-4.89;100.00;99379.03;3820317;77;44056;-17
2021/03/20 06:28:56;;;;;;;6.00;2.50;;;;;;;-4.82;100.00;99375.33;3808495;76;43322;-18
2021/03/20 06:34:05;;;;;;;3.53;2.07;;;;;;;-4.77;100.00;99386.59;3703948;78;43669;-18
2021/03/20 06:39:19;;;;;;;3.20;2.23;;;;;;;-4.69;100.00;99391.63;3776491;77;43391;-18
2021/03/20 06:44:36;;;;;;;4.83;2.50;;;;;;;-4.56;100.00;99390.86;3701355;78;44106;-18
2021/03/20 06:49:45;;;;;;;4.50;2.17;;;;;;;-4.36;100.00;99392.47;3800338;77;44550;-20
2021/03/20 06:54:56;;;;;;;5.93;2.30;;;;;;;-4.25;100.00;99393.92;3799204;77;43463;-18
2021/03/20 07:00:07;;;;;;;5.33;2.00;;;;;;;-4.08;100.00;99402.65;3704438;78;44024;-18
2021/03/20 07:05:19;;;;;;;3.60;1.77;;;;;;;-4.06;100.00;99400.84;3792772;77;44077;-18
2021/03/20 07:10:32;;;;;;;6.43;1.70;;;;;;;-3.97;100.00;99402.34;3797822;77;43685;-18
2021/03/20 07:15:38;;;;;;;5.30;2.10;;;;;;;-3.84;100.00;99406.78;3788655;77;44400;-18
2021/03/20 07:20:44;;;;;;;4.20;2.00;;;;;;;-3.70;100.00;99416.45;3680588;79;44954;-18
2021/03/20 07:25:54;;;;;;;4.00;2.13;;;;;;;-3.64;100.00;99428.56;3704843;78;43521;-19
2021/03/20 07:31:08;;;;;;;4.60;2.00;;;;;;;-3.53;100.00;99421.19;3812496;77;43328;-18
2021/03/20 07:36:32;;;;;;;4.03;2.07;;;;;;;-3.35;100.00;99426.81;3797272;77;43995;-18
2021/03/20 07:41:48;;;;;;;4.97;2.20;;;;;;;-3.25;100.00;99438.31;3711546;78;42699;-18
2021/03/20 07:46:57;;;;;;;3.57;1.93;;;;;;;-3.20;100.00;99442.11;3696983;78;44663;-18
2021/03/20 07:52:08;;;;;;;3.77;2.23;;;;;;;-3.12;100.00;99449.78;3792951;77;43195;-19
2021/03/20 07:57:16;;;;;;;3.87;2.23;;;;;;;-3.03;100.00;99454.75;3790830;77;43427;-19
2021/03/20 08:02:31;;;;;;;4.70;1.97;;;;;;;-3.05;100.00;99457.03;3782661;77;44020;-18
2021/03/20 08:07:46;;;;;;;7.20;2.47;;;;;;;-2.92;100.00;99456.16;3785600;77;43710;-18
2021/03/20 08:13:02;;;;;;;2.50;2.00;;;;;;;-2.74;100.00;99468.76;3787743;76;43345;-19
2021/03/20 08:18:16;;;;;;;5.90;2.30;;;;;;;-2.71;100.00;99450.64;3795133;77;43338;-19
2021/03/20 08:23:34;;;;;;;3.10;1.87;;;;;;;-2.62;100.00;99449.47;3776226;77;43677;-19
2021/03/20 08:28:48;;;;;;;6.17;2.37;;;;;;;-2.55;100.00;99446.58;3783961;77;43034;-19
2021/03/20 08:34:10;;;;;;;5.10;1.97;;;;;;;-2.35;100.00;99444.53;3767022;77;43347;-19
2021/03/20 08:39:37;;;;;;;3.77;2.00;;;;;;;-2.19;100.00;99441.34;3787504;77;44630;-19
2021/03/20 08:45:18;;;;;;;7.17;2.23;;;;;;;-2.07;100.00;99444.02;3774968;77;44059;-17
2021/03/20 08:50:31;;;;;;;5.13;2.20;;;;;;;-1.95;100.00;99441.38;3783257;77;43478;-21
2021/03/20 08:55:54;;;;;;;4.93;2.47;;;;;;;-1.94;100.00;99443.09;3799332;77;43500;-17
2021/03/20 09:01:04;;;;;;;3.00;2.30;;;;;;;-1.87;100.00;99444.58;3787110;77;43691;-16
2021/03/20 09:06:16;;;;;;;5.50;2.50;;;;;;;-1.76;100.00;99442.87;3781080;77;43688;-18
2021/03/20 09:11:32;;;;;;;4.30;2.10;;;;;;;-1.58;100.00;99453.20;3782231;77;44049;-17
2021/03/20 09:16:42;;;;;;;3.77;2.13;;;;;;;-1.60;99.26;99454.59;3793012;77;43732;-18
2021/03/20 09:21:49;;;;;;;3.83;1.90;;;;;;;-1.38;100.00;99459.48;3783698;77;44144;-17
2021/03/20 09:26:57;;;;;;;2.37;2.10;;;;;;;-1.45;95.73;99461.50;3801834;77;44079;-17
2021/03/20 09:32:08;;;;;;;2.90;2.23;;;;;;;-1.35;94.85;99458.89;3802715;77;43676;-17
2021/03/20 09:38:01;;;;;;;4.43;2.30;;;;;;;-1.20;96.47;99464.50;3801725;77;43990;-17
2021/03/20 09:43:53;;;;;;;6.63;2.40;;;;;;;-1.08;95.48;99465.33;3804358;77;44059;-18
2021/03/20 09:48:59;;;;;;;3.33;2.53;;;;;;;-0.94;92.38;99472.70;3791349;77;44087;-18
2021/03/20 09:54:42;;;;;;;3.67;2.30;;;;;;;-0.94;91.55;99469.61;3796657;77;44026;-18
2021/03/20 09:59:51;;;;;;;5.10;2.23;;;;;;;-1.02;87.97;99478.77;3796891;77;44004;-18
2021/03/20 10:05:03;;;;;;;3.00;1.90;;;;;;;-0.86;89.73;99471.06;3787817;77;44078;-18
2021/03/20 10:10:40;;;;;;;3.20;2.33;;;;;;;-1.28;81.13;99478.90;3784527;77;43446;-18
2021/03/20 10:15:59;;;;;;;3.57;1.90;;;;;;;-0.82;89.38;99479.29;3788296;77;44019;-18
2021/03/20 10:21:20;;;;;;;4.07;1.93;;;;;;;-0.52;82.35;99470.53;3690621;80;44066;-17
2021/03/20 10:26:35;;;;;;;2.70;1.83;;;;;;;-0.42;75.21;99473.66;3775798;77;43715;-17
2021/03/20 10:31:45;;;;;;;3.80;2.10;;;;;;;-0.21;72.15;99474.98;3767326;77;44232;-17
2021/03/20 10:37:04;;;;;;;2.77;1.83;;;;;;;-0.16;71.77;99472.97;3785622;77;43286;-17
2021/03/20 10:42:21;;;;;;;2.60;2.10;;;;;;;0.10;73.07;99470.51;3787687;77;44056;-18
2021/03/20 10:47:30;;;;;;;5.10;2.23;;;;;;;0.51;76.56;99463.36;3791746;77;43053;-17
2021/03/20 10:52:39;;;;;;;2.27;2.03;;;;;;;0.53;74.56;99463.67;3792008;77;43681;-18
2021/03/20 10:57:45;;;;;;;1.97;1.60;;;;;;;0.89;72.28;99458.88;3790741;77;43105;-20
2021/03/20 11:02:52;;;;;;;3.60;2.50;;;;;;;1.18;63.12;99459.70;3785215;77;44513;-19
2021/03/20 11:08:01;;;;;;;4.07;2.37;;;;;;;1.43;65.80;99455.83;3792152;77;43681;-18
2021/03/20 11:13:09;;;;;;;3.93;2.40;;;;;;;1.30;65.54;99454.27;3798083;77;43718;-18
2021/03/20 11:18:19;;;;;;;3.03;2.57;;;;;;;0.78;66.21;99455.03;3788386;77;44003;-18
2021/03/20 11:23:34;;;;;;;3.33;2.27;;;;;;;0.75;67.97;99443.64;3778807;77;44756;-17
2021/03/20 11:28:43;;;;;;;3.77;2.53;;;;;;;0.88;61.03;99433.27;3776697;77;43515;-17
2021/03/20 11:33:49;;;;;;;4.90;2.80;;;;;;;0.73;60.29;99440.19;3773912;77;44045;-17
2021/03/20 11:38:56;;;;;;;3.10;2.43;;;;;;;0.95;63.30;99432.99;3721129;78;44061;-17
2021/03/20 11:44:07;;;;;;;4.73;2.70;;;;;;;0.77;57.74;99423.66;3685537;80;26413;-17
2021/03/20 11:49:24;;;;;;;4.97;3.23;;;;;;;1.38;64.22;99408.27;3718657;79;44188;-17
2021/03/20 11:54:33;;;;;;;5.13;3.20;;;;;;;1.94;68.84;99408.06;3723943;79;44070;-17
2021/03/20 11:59:42;;;;;;;4.77;2.80;;;;;;;1.81;64.97;99403.84;3719966;79;43455;-18
2021/03/20 12:04:48;;;;;;;3.67;2.73;;;;;;;2.17;65.47;99396.65;3713164;79;43770;-18
2021/03/20 12:09:55;;;;;;;4.17;3.10;;;;;;;2.02;58.22;99379.70;3720828;79;43721;-18
2021/03/20 12:15:24;;;;;;;4.00;2.70;;;;;;;2.20;61.73;99369.41;3721719;79;43521;-19
2021/03/20 12:20:43;;;;;;;10.40;8.80;;;;;;;1.90;54.25;99359.98;3806263;77;44193;-19
2021/03/20 12:25:50;;;;;;;3.33;2.83;;;;;;;1.56;53.75;99358.66;3786129;77;44023;-19
2021/03/20 12:31:11;;;;;;;10.53;7.60;;;;;;;1.33;55.26;99344.78;3732673;79;43708;-19
2021/03/20 12:36:20;;;;;;;6.03;3.67;;;;;;;1.30;57.18;99348.08;3760205;78;43675;-19
2021/03/20 12:41:29;;;;;;;4.63;3.37;;;;;;;1.55;62.40;99333.03;3737835;78;44206;-19
2021/03/20 12:46:35;;;;;;;4.37;3.90;;;;;;;1.95;64.28;99336.66;3691137;78;44097;-19
2021/03/20 12:51:41;;;;;;;4.97;3.87;;;;;;;2.26;67.38;99327.00;3667904;81;43128;-19
2021/03/20 12:56:47;;;;;;;4.33;3.37;;;;;;;2.56;58.54;99315.55;3757848;77;43411;-19
2021/03/20 13:01:54;;;;;;;4.73;3.47;;;;;;;2.39;59.05;99322.71;3667524;79;44032;-19
2021/03/20 13:07:01;;;;;;;3.93;2.77;;;;;;;2.14;57.32;99317.44;3727657;78;43690;-19
2021/03/20 13:12:10;;;;;;;3.27;2.73;;;;;;;1.62;55.98;99319.83;3798261;76;44025;-18
2021/03/20 13:17:17;;;;;;;3.37;2.83;;;;;;;1.76;60.82;99313.76;3681978;79;44031;-17
2021/03/20 13:22:24;;;;;;;3.90;2.73;;;;;;;2.27;62.19;99308.30;3709921;78;42755;-18
2021/03/20 13:27:30;;;;;;;3.13;2.50;;;;;;;2.48;55.64;99304.02;3805833;77;43709;-17
2021/03/20 13:32:36;;;;;;;5.37;3.27;;;;;;;2.28;58.07;99297.20;3817027;76;43944;-17
2021/03/20 13:37:43;;;;;;;3.87;3.47;;;;;;;1.95;61.34;99296.80;3804783;77;43396;-18
2021/03/20 13:42:49;;;;;;;3.17;2.87;;;;;;;1.75;59.43;99305.40;3791156;77;43686;-17
2021/03/20 13:47:55;;;;;;;4.60;3.80;;;;;;;1.50;54.58;99305.39;3810869;77;43721;-18
2021/03/20 13:53:01;;;;;;;3.70;3.40;;;;;;;1.65;62.63;99307.69;3793723;77;43700;-17
2021/03/20 13:58:06;;;;;;;3.43;3.13;;;;;;;1.68;62.53;99307.53;3796495;76;43249;-17
2021/03/20 14:03:14;;;;;;;4.93;2.93;;;;;;;1.73;60.89;99293.15;3789257;77;43469;-17
2021/03/20 14:08:20;;;;;;;4.50;2.80;;;;;;;1.69;63.09;99291.14;3785193;77;44074;-17
2021/03/20 14:13:27;;;;;;;3.00;2.60;;;;;;;1.61;56.90;99295.53;3781432;77;44014;-18
2021/03/20 14:18:33;;;;;;;4.33;2.60;;;;;;;1.61;58.87;99286.23;3766884;77;44150;-18
2021/03/20 14:23:40;;;;;;;4.07;2.73;;;;;;;1.62;62.51;99276.00;3771493;77;44141;-17
2021/03/20 14:28:46;;;;;;;3.20;2.90;;;;;;;1.39;61.37;99275.90;3712847;79;43095;-18
2021/03/20 14:33:53;;;;;;;3.27;2.73;;;;;;;1.26;58.22;99269.52;3767230;77;43272;-18
2021/03/20 14:38:59;;;;;;;4.43;2.73;;;;;;;1.38;58.39;99271.52;3783832;77;44086;-17
2021/03/20 14:44:06;;;;;;;3.77;2.77;;;;;;;1.29;60.34;99249.00;3643837;81;43417;-17
2021/03/20 14:49:13;;;;;;;4.40;3.33;;;;;;;1.21;59.14;99249.41;3723534;79;43270;-17
2021/03/20 14:54:19;;;;;;;4.97;3.07;;;;;;;1.23;61.46;99254.14;3780618;77;44012;-17
2021/03/20 14:59:31;;;;;;;5.03;3.13;;;;;;;1.09;64.40;99244.74;3792671;77;43723;-17
2021/03/20 15:04:40;;;;;;;4.83;2.70;;;;;;;1.08;60.25;99245.68;3780193;77;44136;-17
2021/03/20 15:09:49;;;;;;;2.70;2.20;;;;;;;1.02;57.70;99233.59;3791710;77;42860;-17
2021/03/20 15:14:54;;;;;;;5.60;1.93;;;;;;;0.92;56.32;99238.52;3682673;80;43145;-17
2021/03/20 15:20:03;;;;;;;2.97;1.90;;;;;;;0.78;57.74;99226.42;3782847;77;44026;-19
2021/03/20 15:25:12;;;;;;;2.63;2.13;;;;;;;0.81;58.31;99221.45;3713585;77;43234;-18
2021/03/20 15:30:27;;;;;;;3.03;2.27;;;;;;;0.85;60.22;99216.36;3680259;80;43447;-18
2021/03/20 15:35:33;;;;;;;3.73;2.47;;;;;;;0.84;60.14;99208.88;3670474;80;43327;-18
2021/03/20 15:40:42;;;;;;;3.20;2.20;;;;;;;0.85;63.67;99205.75;3647653;81;43694;-18
2021/03/20 15:45:49;;;;;;;6.77;3.27;;;;;;;0.79;65.22;99202.10;3684729;80;44041;-18
2021/03/20 15:51:10;;;;;;;3.90;2.07;;;;;;;0.81;63.03;99206.86;3789586;77;43783;-18
2021/03/20 15:56:18;;;;;;;4.50;1.90;;;;;;;0.68;60.54;99192.03;3789517;77;44457;-18
2021/03/20 16:01:24;;;;;;;3.67;2.17;;;;;;;0.72;63.47;99186.97;3714085;79;44003;-18
2021/03/20 16:06:31;;;;;;;3.27;1.93;;;;;;;0.70;63.09;99184.41;3692160;79;43994;-18
2021/03/20 16:11:37;;;;;;;2.90;1.90;;;;;;;0.61;64.77;99180.44;3661607;79;43261;-18
2021/03/20 16:16:44;;;;;;;3.77;1.93;;;;;;;0.65;67.68;99177.63;3688777;79;43594;-17
2021/03/20 16:21:53;;;;;;;3.80;2.33;;;;;;;0.57;65.33;99179.35;3793534;77;44511;-18
2021/03/20 16:27:00;;;;;;;3.53;1.80;;;;;;;0.56;64.21;99163.89;3788162;77;44093;-18
2021/03/20 16:32:08;;;;;;;2.67;1.70;;;;;;;0.52;64.94;99165.01;3792698;77;44042;-18
2021/03/20 16:37:17;;;;;;;5.13;2.20;;;;;;;0.52;62.84;99156.18;3794788;77;44031;-18
2021/03/20 16:42:24;;;;;;;2.83;1.80;;;;;;;0.47;64.75;99148.47;3786961;77;43287;-18
2021/03/20 16:47:31;;;;;;;3.33;1.90;;;;;;;0.43;65.35;99138.95;3658569;80;43747;-17
2021/03/20 16:52:39;;;;;;;5.80;1.90;;;;;;;0.38;64.40;99139.67;3671869;80;44416;-17
2021/03/20 16:57:45;;;;;;;4.30;1.97;;;;;;;0.38;64.41;99131.72;3734278;78;44196;-18
2021/03/20 17:02:53;;;;;;;3.23;1.83;;;;;;;0.38;70.25;99135.70;3794735;77;44031;-18
2021/03/20 17:08:00;;;;;;;2.90;1.90;;;;;;;0.32;65.91;99128.91;3802689;77;43717;-18
2021/03/20 17:13:07;;;;;;;2.50;1.70;;;;;;;0.32;67.85;99126.72;3804217;77;43682;-18
2021/03/20 17:18:17;;;;;;;2.17;1.70;;;;;;;0.33;69.72;99127.11;3805804;77;43765;-18
2021/03/20 17:23:24;;;;;;;3.60;2.10;;;;;;;0.26;69.55;99122.14;3802133;77;43749;-18
2021/03/20 17:28:32;;;;;;;2.93;2.00;;;;;;;0.25;71.60;99120.42;3790130;77;43372;-18
2021/03/20 17:33:39;;;;;;;3.27;2.30;;;;;;;0.28;71.85;99112.32;3690478;80;44007;-21
2021/03/20 17:38:46;;;;;;;3.13;2.27;;;;;;;0.25;71.18;99108.50;3715694;78;43991;-18
2021/03/20 17:43:52;;;;;;;4.63;2.07;;;;;;;0.20;69.01;99108.34;3787425;77;44216;-18
2021/03/20 17:48:58;;;;;;;4.47;2.13;;;;;;;0.20;72.15;99101.23;3812954;76;43717;-18
2021/03/20 17:54:05;;;;;;;4.63;2.63;;;;;;;0.17;67.44;99092.59;3817466;77;44457;-18
2021/03/20 17:59:11;;;;;;;3.93;1.90;;;;;;;0.15;68.33;99086.06;3799602;77;44098;-18
2021/03/20 18:04:17;;;;;;;4.63;2.10;;;;;;;0.11;66.76;99077.41;3627317;80;43076;-18
2021/03/20 18:09:23;;;;;;;2.33;2.00;;;;;;;0.14;71.77;99084.34;3696110;78;43419;-18
2021/03/20 18:14:29;;;;;;;3.17;1.97;;;;;;;0.12;70.79;99071.16;3791831;77;43720;-18
2021/03/20 18:19:36;;;;;;;5.30;2.10;;;;;;;0.13;75.59;99064.08;3796850;77;44053;-18
2021/03/20 18:24:44;;;;;;;3.97;2.00;;;;;;;0.11;76.71;99064.17;3778998;77;44506;-18
2021/03/20 18:29:51;;;;;;;2.97;2.20;;;;;;;0.08;76.71;99060.80;3731903;78;43442;-18
2021/03/20 18:34:59;;;;;;;3.70;2.40;;;;;;;0.06;75.64;99057.39;3722859;78;43656;-18
2021/03/20 18:40:10;;;;;;;4.27;2.10;;;;;;;0.07;76.56;99058.63;3717196;77;44401;-18
2021/03/20 18:45:20;;;;;;;5.23;2.17;;;;;;;0.03;73.25;99059.71;3737845;79;44019;-18
2021/03/20 18:50:32;;;;;;;3.63;2.10;;;;;;;0.05;74.33;99051.70;3716249;78;26385;-18
2021/03/20 18:55:39;;;;;;;4.73;2.20;;;;;;;0.00;73.09;99044.00;3716467;79;43977;-18
2021/03/20 19:00:46;;;;;;;3.20;2.30;;;;;;;0.02;74.38;99046.55;3717493;79;43346;-18
2021/03/20 19:05:55;;;;;;;3.47;2.23;;;;;;;-0.01;73.12;99044.93;3659695;80;44153;-18
2021/03/20 19:11:02;;;;;;;3.80;2.40;;;;;;;-0.01;72.23;99048.42;3666038;79;43702;-18
2021/03/20 19:16:10;;;;;;;3.07;2.13;;;;;;;-0.03;72.84;99039.69;3670043;80;43349;-18
2021/03/20 19:21:19;;;;;;;4.13;2.40;;;;;;;-0.01;75.99;99039.15;3659270;79;44436;-17
2021/03/20 19:26:27;;;;;;;3.33;2.30;;;;;;;-0.01;77.45;99032.52;3669229;80;44027;-17
2021/03/20 19:31:35;;;;;;;3.57;2.10;;;;;;;0.01;79.13;99032.92;3656578;80;43689;-18
2021/03/20 19:36:55;;;;;;;4.53;2.50;;;;;;;-0.04;78.86;99019.91;3646183;80;43026;-17
2021/03/20 19:42:02;;;;;;;3.57;2.50;;;;;;;-0.03;75.23;99006.58;3656051;80;44670;-19
2021/03/20 19:47:09;;;;;;;4.47;2.57;;;;;;;-0.02;73.03;98995.53;3648867;80;43678;-19
2021/03/20 19:52:16;;;;;;;3.97;2.43;;;;;;;-0.07;68.87;98990.48;3655751;80;43694;-18
2021/03/20 19:57:23;;;;;;;5.20;2.00;;;;;;;-0.06;70.77;98984.21;3628763;80;43667;-19
2021/03/20 20:02:30;;;;;;;5.37;2.40;;;;;;;-0.06;70.26;98984.70;3668718;77;43381;-18
2021/03/20 20:07:38;;;;;;;3.90;2.43;;;;;;;-0.09;72.39;98980.42;3704191;77;43685;-17
2021/03/20 20:12:46;;;;;;;5.43;3.00;;;;;;;-0.11;71.87;98978.77;3720892;79;43404;-18
2021/03/20 20:17:55;;;;;;;8.03;4.23;;;;;;;-0.14;72.19;98961.25;3716389;77;44526;-18
2021/03/20 20:23:02;;;;;;;6.67;3.80;;;;;;;-0.13;71.66;98959.00;3675354;79;44432;-18
2021/03/20 20:28:12;;;;;;;3.83;2.70;;;;;;;-0.14;72.57;98957.77;3706161;78;44074;-18
2021/03/20 20:33:18;;;;;;;4.03;2.87;;;;;;;-0.11;73.50;98965.08;3712820;79;44051;-18
2021/03/20 20:38:24;;;;;;;4.40;2.63;;;;;;;-0.14;71.32;98958.61;3710208;79;44033;-18
2021/03/20 20:43:33;;;;;;;3.97;2.63;;;;;;;-0.14;72.34;98955.12;3713298;79;44096;-18
2021/03/20 20:48:39;;;;;;;4.63;2.67;;;;;;;-0.16;71.06;98948.11;3710970;79;43381;-18
2021/03/20 20:53:45;;;;;;;5.03;2.70;;;;;;;-0.16;71.94;98947.23;3708633;79;44060;-18
2021/03/20 20:58:52;;;;;;;2.93;2.27;;;;;;;-0.16;69.78;98949.43;3712970;79;43709;-18
2021/03/20 21:03:59;;;;;;;4.70;2.93;;;;;;;-0.11;73.10;98939.91;3715856;79;43301;-18
2021/03/20 21:09:06;;;;;;;3.57;2.73;;;;;;;-0.11;73.71;98933.74;3711992;79;43274;-18
2021/03/20 21:14:13;;;;;;;6.00;3.00;;;;;;;-0.09;74.75;98935.39;3724610;79;43654;-18
2021/03/20 21:19:20;;;;;;;4.23;2.70;;;;;;;-0.08;73.01;98935.78;3717867;78;43703;-18
2021/03/20 21:24:26;;;;;;;5.30;3.43;;;;;;;-0.05;75.57;98920.19;3728107;79;43703;-18
2021/03/20 21:29:32;;;;;;;4.87;2.80;;;;;;;-0.06;73.86;98921.13;3716693;78;43681;-18
2021/03/20 21:34:39;;;;;;;4.03;2.80;;;;;;;-0.06;73.69;98915.34;3708808;79;43729;-18
2021/03/20 21:39:45;;;;;;;4.73;2.70;;;;;;;-0.05;73.06;98910.92;3701927;79;44924;-18
2021/03/20 21:44:51;;;;;;;4.83;3.03;;;;;;;-0.04;73.94;98905.53;3695163;79;43702;-18
2021/03/20 21:49:59;;;;;;;5.67;3.00;;;;;;;0.01;76.49;98900.46;3686758;79;44072;-19
2021/03/20 21:55:07;;;;;;;3.77;2.80;;;;;;;0.01;77.68;98899.14;3700015;79;42712;-18
2021/03/20 22:00:17;;;;;;;4.63;3.00;;;;;;;0.03;77.97;98889.32;3702016;79;44026;-18
2021/03/20 22:05:23;;;;;;;4.40;3.07;;;;;;;0.08;78.78;98888.13;3724118;78;44012;-18
2021/03/20 22:10:29;;;;;;;4.97;3.10;;;;;;;0.09;77.64;98878.38;3693461;79;44558;-19
2021/03/20 22:15:36;;;;;;;4.63;2.80;;;;;;;0.12;78.64;98880.86;3704627;79;43035;-19
2021/03/20 22:20:46;;;;;;;5.50;3.20;;;;;;;0.14;77.98;98876.34;3700733;78;43412;-18
2021/03/20 22:25:54;;;;;;;6.20;3.80;;;;;;;0.14;77.53;98869.72;3703133;79;44075;-19
2021/03/20 22:31:02;;;;;;;4.00;3.27;;;;;;;0.13;78.63;98864.87;3713533;78;43720;-19
2021/03/20 22:36:09;;;;;;;4.63;3.33;;;;;;;0.15;79.96;98850.23;3717643;79;44000;-19
2021/03/20 22:41:16;;;;;;;5.50;3.30;;;;;;;0.17;81.71;98847.03;3714579;79;43300;-19
2021/03/20 22:46:22;;;;;;;3.30;1.97;;;;;;;0.19;79.79;98835.86;3713392;79;44110;-30
2021/03/20 22:51:28;;;;;;;4.97;1.90;;;;;;;0.57;73.79;98836.82;3707572;78;44051;-18
2021/03/20 22:56:35;;;;;;;5.47;2.10;;;;;;;0.80;69.13;98828.49;3715829;78;43644;-19
2021/03/20 23:01:41;;;;;;;3.40;1.73;;;;;;;0.92;68.49;98825.13;3721139;77;44085;-18
2021/03/20 23:06:47;;;;;;;3.23;1.80;;;;;;;1.07;63.16;98819.37;3718081;78;44439;-19
2021/03/20 23:11:53;;;;;;;1.70;1.60;;;;;;;1.09;65.87;98806.88;3722948;79;44070;-19
2021/03/20 23:16:59;;;;;;;2.23;1.50;;;;;;;1.12;63.16;98804.02;3721693;79;44392;-19
2021/03/20 23:22:08;;;;;;;6.63;3.23;;;;;;;1.16;65.79;98793.61;3725690;78;44205;-18
2021/03/20 23:27:14;;;;;;;4.60;3.27;;;;;;;0.86;72.78;98783.89;3705427;79;44047;-19
2021/03/20 23:32:20;;;;;;;3.93;3.03;;;;;;;0.72;76.88;98783.85;3714297;78;43672;-18
2021/03/20 23:37:26;;;;;;;3.47;3.00;;;;;;;0.64;75.53;98767.55;3730321;79;43325;-19
2021/03/20 23:42:32;;;;;;;4.97;3.13;;;;;;;0.58;78.28;98768.27;3689390;79;43673;-18
2021/03/20 23:47:38;;;;;;;5.27;3.10;;;;;;;0.58;76.94;98760.31;3712744;78;44127;-17
2021/03/20 23:52:45;;;;;;;6.37;3.50;;;;;;;0.65;78.29;98756.00;3705403;79;43724;-18
2021/03/20 23:57:51;;;;;;;6.20;3.20;;;;;;;0.63;79.34;98747.27;3720710;79;43959;-18
